createdAt,value
2018-03-03T00:00:57.986Z,50.70
2018-03-03T00:03:25.465Z,51.00
2018-03-03T00:05:52.935Z,51.10
2018-03-03T00:08:20.425Z,51.10
2018-03-03T00:10:47.956Z,51.00
2018-03-03T00:13:16.196Z,51.20
2018-03-03T00:15:43.684Z,51.10
2018-03-03T00:18:11.192Z,51.10
2018-03-03T00:20:38.657Z,51.50
2018-03-03T00:23:06.133Z,51.20
2018-03-03T00:25:33.612Z,51.00
2018-03-03T00:28:01.196Z,51.10
2018-03-03T00:30:29.437Z,51.10
2018-03-03T00:32:56.931Z,51.10
2018-03-03T00:35:24.401Z,51.20
2018-03-03T00:37:51.925Z,51.80
2018-03-03T00:40:20.175Z,51.80
2018-03-03T00:42:47.656Z,51.80
2018-03-03T00:45:15.932Z,52.50
2018-03-03T00:47:43.397Z,52.20
2018-03-03T00:50:11.669Z,52.60
2018-03-03T00:52:39.901Z,52.60
2018-03-03T00:55:07.396Z,52.50
2018-03-03T00:57:34.879Z,52.60
2018-03-03T01:00:02.412Z,52.50
2018-03-03T01:02:29.905Z,52.30
2018-03-03T01:04:57.429Z,52.60
2018-03-03T01:07:24.920Z,52.60
2018-03-03T01:09:52.389Z,52.90
2018-03-03T01:12:19.885Z,52.80
2018-03-03T01:14:47.361Z,52.80
2018-03-03T01:17:15.600Z,52.60
2018-03-03T01:19:43.069Z,52.60
2018-03-03T01:22:10.548Z,52.50
2018-03-03T01:24:38.021Z,52.90
2018-03-03T01:27:06.284Z,52.60
2018-03-03T01:29:34.527Z,52.80
2018-03-03T01:32:02.029Z,52.70
2018-03-03T01:34:30.289Z,52.70
2018-03-03T01:36:58.561Z,52.40
2018-03-03T01:39:26.115Z,52.40
2018-03-03T01:41:53.619Z,52.40
2018-03-03T01:44:21.146Z,52.10
2018-03-03T01:46:49.381Z,52.00
2018-03-03T01:49:16.869Z,51.80
2018-03-03T01:51:44.345Z,52.50
2018-03-03T01:54:12.596Z,52.70
2018-03-03T01:56:40.089Z,52.80
2018-03-03T01:59:07.561Z,53.00
2018-03-03T02:01:35.034Z,53.00
2018-03-03T02:04:02.511Z,53.40
2018-03-03T02:06:29.978Z,53.10
2018-03-03T02:08:57.449Z,53.10
2018-03-03T02:11:25.759Z,52.20
2018-03-03T02:13:53.219Z,52.20
2018-03-03T02:16:20.694Z,52.20
2018-03-03T02:18:48.160Z,52.60
2018-03-03T02:21:15.636Z,52.30
2018-03-03T02:23:43.124Z,52.60
2018-03-03T02:26:10.604Z,52.40
2018-03-03T02:28:38.064Z,52.20
2018-03-03T02:31:05.550Z,52.50
2018-03-03T02:33:33.148Z,52.70
2018-03-03T02:36:01.409Z,52.90
2018-03-03T02:38:29.650Z,52.90
2018-03-03T02:40:57.129Z,52.80
2018-03-03T02:43:25.294Z,53.40
2018-03-03T02:45:52.869Z,53.50
2018-03-03T02:48:20.412Z,53.40
2018-03-03T02:50:47.888Z,53.90
2018-03-03T02:53:16.149Z,54.00
2018-03-03T02:55:43.617Z,54.00
2018-03-03T02:58:11.171Z,54.20
2018-03-03T03:00:38.733Z,54.60
2018-03-03T03:03:06.224Z,54.10
2018-03-03T03:05:33.697Z,54.20
2018-03-03T03:08:01.160Z,54.40
2018-03-03T03:10:28.624Z,54.50
2018-03-03T03:12:56.116Z,54.50
2018-03-03T03:15:23.672Z,54.40
2018-03-03T03:17:51.173Z,54.40
2018-03-03T03:20:18.636Z,54.70
2018-03-03T03:22:46.105Z,54.70
2018-03-03T03:25:13.652Z,54.70
2018-03-03T03:27:41.144Z,54.60
2018-03-03T03:30:08.615Z,54.20
2018-03-03T03:32:36.180Z,54.40
2018-03-03T03:35:03.739Z,54.70
2018-03-03T03:37:31.204Z,54.80
2018-03-03T03:39:59.454Z,55.00
2018-03-03T03:42:26.935Z,55.00
2018-03-03T03:44:54.495Z,55.50
2018-03-03T03:47:21.980Z,54.60
2018-03-03T03:49:49.652Z,54.90
2018-03-03T03:52:17.123Z,54.80
2018-03-03T03:54:44.607Z,54.60
2018-03-03T03:57:12.281Z,55.00
2018-03-03T03:59:39.755Z,55.10
2018-03-03T04:02:07.993Z,54.90
2018-03-03T04:04:35.556Z,54.90
2018-03-03T04:07:03.035Z,54.80
2018-03-03T04:09:30.516Z,55.00
2018-03-03T04:11:58.004Z,54.90
2018-03-03T04:14:25.484Z,55.00
2018-03-03T04:16:53.061Z,55.40
2018-03-03T04:19:20.606Z,55.50
2018-03-03T04:21:48.082Z,56.00
2018-03-03T04:24:16.332Z,55.50
2018-03-03T04:26:43.800Z,55.20
2018-03-03T04:29:11.293Z,55.30
2018-03-03T04:31:38.752Z,55.10
2018-03-03T04:34:06.278Z,54.90
2018-03-03T04:36:34.528Z,54.30
2018-03-03T04:39:02.016Z,54.20
2018-03-03T04:41:29.498Z,54.10
2018-03-03T04:43:57.002Z,54.70
2018-03-03T04:46:24.468Z,55.10
2018-03-03T04:48:51.953Z,54.70
2018-03-03T04:51:20.180Z,55.60
2018-03-03T04:53:47.652Z,55.00
2018-03-03T04:56:15.124Z,55.30
2018-03-03T04:58:44.509Z,55.50
2018-03-03T05:04:28.132Z,55.20
2018-03-03T05:06:57.388Z,55.30
2018-03-03T05:09:25.649Z,54.80
2018-03-03T05:11:53.119Z,54.80
2018-03-03T05:14:27.087Z,55.20
2018-03-03T05:20:05.952Z,55.30
2018-03-03T05:22:39.122Z,55.90
2018-03-03T05:25:12.189Z,56.00
2018-03-03T05:27:45.487Z,55.70
2018-03-03T05:30:18.717Z,56.70
2018-03-03T05:32:51.960Z,56.90
2018-03-03T05:35:23.395Z,56.60
2018-03-03T05:37:57.332Z,55.90
2018-03-03T05:40:28.311Z,55.90
2018-03-03T05:42:58.580Z,56.00
2018-03-03T05:45:31.652Z,56.40
2018-03-03T05:48:14.764Z,56.80
2018-03-03T05:50:46.810Z,57.00
2018-03-03T05:53:33.070Z,57.00
2018-03-03T05:56:00.524Z,57.20
2018-03-03T05:58:33.637Z,57.10
2018-03-03T06:01:06.904Z,57.30
2018-03-03T06:03:34.411Z,57.10
2018-03-03T06:09:26.884Z,56.70
2018-03-03T06:11:55.127Z,56.60
2018-03-03T06:14:22.599Z,56.60
2018-03-03T06:16:50.072Z,56.70
2018-03-03T06:19:18.315Z,57.30
2018-03-03T06:21:45.767Z,57.20
2018-03-03T06:24:13.257Z,57.40
2018-03-03T06:26:40.714Z,57.30
2018-03-03T06:29:08.972Z,57.80
2018-03-03T06:31:36.448Z,57.70
2018-03-03T06:34:04.687Z,57.10
2018-03-03T06:36:32.155Z,57.10
2018-03-03T06:38:59.636Z,56.80
2018-03-03T06:41:27.882Z,57.20
2018-03-03T06:43:55.344Z,57.10
2018-03-03T06:46:22.813Z,57.40
2018-03-03T06:48:50.364Z,57.60
2018-03-03T06:51:17.868Z,58.00
2018-03-03T06:53:45.402Z,57.80
2018-03-03T06:56:12.838Z,58.10
2018-03-03T06:58:40.303Z,58.00
2018-03-03T07:01:07.847Z,57.50
2018-03-03T07:03:35.407Z,57.40
2018-03-03T07:06:02.864Z,56.90
2018-03-03T07:08:30.346Z,56.80
2018-03-03T07:10:58.596Z,57.00
2018-03-03T07:13:26.076Z,56.90
2018-03-03T07:15:54.309Z,56.90
2018-03-03T07:18:21.787Z,56.90
2018-03-03T07:20:49.265Z,56.70
2018-03-03T07:23:17.624Z,56.40
2018-03-03T07:25:45.128Z,56.30
2018-03-03T07:28:12.595Z,56.10
2018-03-03T07:30:40.092Z,55.80
2018-03-03T07:33:08.341Z,55.60
2018-03-03T07:35:35.889Z,55.50
2018-03-03T07:38:04.100Z,55.20
2018-03-03T07:40:31.560Z,55.20
2018-03-03T07:42:59.178Z,54.80
2018-03-03T07:45:26.636Z,54.70
2018-03-03T07:47:54.148Z,54.50
2018-03-03T07:50:22.380Z,54.20
2018-03-03T07:52:49.873Z,54.10
2018-03-03T07:55:17.481Z,53.60
2018-03-03T07:57:44.947Z,53.50
2018-03-03T08:00:12.437Z,53.00
2018-03-03T08:02:39.960Z,52.40
2018-03-03T08:05:08.152Z,53.60
2018-03-03T08:07:35.624Z,53.50
2018-03-03T08:10:03.099Z,53.40
2018-03-03T08:12:30.640Z,52.90
2018-03-03T08:14:58.114Z,52.40
2018-03-03T08:17:26.348Z,51.60
2018-03-03T08:19:53.834Z,51.00
2018-03-03T08:22:21.313Z,51.10
2018-03-03T08:24:49.564Z,50.70
2018-03-03T08:27:17.131Z,50.60
2018-03-03T08:29:44.593Z,50.20
2018-03-03T08:32:12.060Z,49.90
2018-03-03T08:34:40.340Z,49.00
2018-03-03T08:37:08.566Z,47.50
2018-03-03T08:39:36.036Z,47.50
2018-03-03T08:42:03.607Z,48.10
2018-03-03T08:44:31.064Z,47.60
2018-03-03T08:46:58.540Z,46.80
2018-03-03T08:49:26.770Z,46.70
2018-03-03T08:51:54.242Z,46.70
2018-03-03T08:54:21.719Z,46.20
2018-03-03T08:56:49.961Z,44.20
2018-03-03T08:59:17.561Z,44.10
2018-03-03T09:01:45.796Z,44.40
2018-03-03T09:04:13.276Z,44.40
2018-03-03T09:06:40.754Z,44.80
2018-03-03T09:09:08.995Z,40.60
2018-03-03T09:11:36.467Z,40.60
2018-03-03T09:14:03.925Z,42.00
2018-03-03T09:16:31.401Z,39.90
2018-03-03T09:18:59.632Z,40.70
2018-03-03T09:21:27.108Z,40.70
2018-03-03T09:23:54.568Z,39.30
2018-03-03T09:26:22.067Z,38.90
2018-03-03T09:28:49.530Z,38.60
2018-03-03T09:31:17.002Z,37.10
2018-03-03T09:33:44.482Z,37.10
2018-03-03T09:36:11.948Z,38.10
2018-03-03T09:38:39.436Z,38.60
2018-03-03T09:41:07.682Z,38.30
2018-03-03T09:43:35.160Z,38.30
2018-03-03T09:46:03.409Z,38.70
2018-03-03T09:48:30.868Z,38.70
2018-03-03T09:50:58.352Z,38.60
2018-03-03T09:53:25.836Z,38.50
2018-03-03T09:55:53.365Z,36.80
2018-03-03T09:58:22.364Z,36.40
2018-03-03T10:00:50.663Z,37.70
2018-03-03T10:03:18.119Z,37.70
2018-03-03T10:05:45.589Z,36.50
2018-03-03T10:08:13.082Z,35.20
2018-03-03T10:10:40.568Z,34.60
2018-03-03T10:13:08.799Z,33.50
2018-03-03T10:15:36.265Z,33.40
2018-03-03T10:18:03.729Z,32.20
2018-03-03T10:20:32.697Z,33.10
2018-03-03T10:23:00.231Z,33.10
2018-03-03T10:25:27.996Z,32.00
2018-03-03T10:27:55.447Z,32.90
2018-03-03T10:30:22.965Z,32.80
2018-03-03T10:32:50.417Z,30.90
2018-03-03T10:35:17.905Z,31.30
2018-03-03T10:37:46.148Z,32.70
2018-03-03T10:40:13.658Z,32.70
2018-03-03T10:42:41.166Z,31.90
2018-03-03T10:45:08.722Z,33.30
2018-03-03T10:47:36.307Z,32.00
2018-03-03T10:50:04.554Z,32.30
2018-03-03T10:52:32.133Z,32.20
2018-03-03T10:55:00.348Z,29.40
2018-03-03T10:57:27.899Z,29.40
2018-03-03T10:59:55.409Z,27.50
2018-03-03T11:02:22.968Z,27.10
2018-03-03T11:04:51.196Z,28.10
2018-03-03T11:07:18.696Z,28.00
2018-03-03T11:09:46.161Z,27.40
2018-03-03T11:12:14.400Z,27.60
2018-03-03T11:14:41.859Z,27.60
2018-03-03T11:17:09.343Z,27.20
2018-03-03T11:19:36.838Z,27.10
2018-03-03T11:22:04.298Z,26.10
2018-03-03T11:24:31.765Z,26.20
2018-03-03T11:26:59.221Z,26.40
2018-03-03T11:29:26.732Z,24.90
2018-03-03T11:31:55.006Z,25.20
2018-03-03T11:34:22.491Z,25.50
2018-03-03T11:36:49.946Z,25.90
2018-03-03T11:39:17.409Z,26.20
2018-03-03T11:41:44.873Z,26.30
2018-03-03T11:44:12.405Z,26.10
2018-03-03T11:46:40.657Z,25.50
2018-03-03T11:49:08.119Z,25.50
2018-03-03T11:51:35.675Z,26.60
2018-03-03T11:54:03.236Z,26.40
2018-03-03T11:56:30.704Z,23.30
2018-03-03T11:58:58.984Z,21.90
2018-03-03T12:01:27.247Z,21.10
2018-03-03T12:03:54.847Z,21.00
2018-03-03T12:06:22.358Z,22.30
2018-03-03T12:08:49.820Z,21.80
2018-03-03T12:11:17.296Z,21.50
2018-03-03T12:13:45.534Z,20.60
2018-03-03T12:16:13.006Z,20.50
2018-03-03T12:18:40.472Z,20.80
2018-03-03T12:21:08.024Z,21.80
2018-03-03T12:23:35.567Z,22.90
2018-03-03T12:26:03.033Z,23.60
2018-03-03T12:28:30.499Z,24.10
2018-03-03T12:30:57.971Z,24.40
2018-03-03T12:33:26.195Z,25.50
2018-03-03T12:35:53.740Z,25.40
2018-03-03T12:38:21.200Z,25.40
2018-03-03T12:40:48.666Z,25.10
2018-03-03T12:43:16.140Z,25.50
2018-03-03T12:45:43.733Z,26.00
2018-03-03T12:48:11.173Z,26.30
2018-03-03T12:50:38.633Z,26.50
2018-03-03T12:53:06.113Z,26.90
2018-03-03T12:55:34.332Z,27.00
2018-03-03T12:58:01.914Z,26.90
2018-03-03T13:00:29.376Z,27.00
2018-03-03T13:02:56.849Z,27.20
2018-03-03T13:05:25.076Z,27.50
2018-03-03T13:07:52.615Z,27.40
2018-03-03T13:10:20.078Z,28.00
2018-03-03T13:12:47.606Z,28.60
2018-03-03T13:15:15.037Z,28.90
2018-03-03T13:17:42.491Z,29.20
2018-03-03T13:20:09.958Z,29.20
2018-03-03T13:22:38.194Z,29.30
2018-03-03T13:25:05.658Z,28.80
2018-03-03T13:27:33.171Z,29.40
2018-03-03T13:30:00.641Z,29.60
2018-03-03T13:32:28.107Z,29.60
2018-03-03T13:34:55.612Z,29.30
2018-03-03T13:37:23.074Z,29.30
2018-03-03T13:39:50.674Z,29.50
2018-03-03T13:42:18.208Z,30.00
2018-03-03T13:44:47.295Z,30.10
2018-03-03T13:47:15.511Z,30.20
2018-03-03T13:49:43.063Z,30.10
2018-03-03T13:52:10.516Z,30.30
2018-03-03T13:54:37.995Z,30.10
2018-03-03T13:57:05.492Z,30.20
2018-03-03T13:59:32.962Z,30.50
2018-03-03T14:02:01.188Z,31.20
2018-03-03T14:04:28.648Z,31.20
2018-03-03T14:06:56.144Z,31.00
2018-03-03T14:09:24.376Z,31.00
2018-03-03T14:11:51.863Z,30.90
2018-03-03T14:14:19.321Z,31.50
2018-03-03T14:16:46.971Z,31.90
2018-03-03T14:19:14.588Z,32.00
2018-03-03T14:21:42.053Z,32.20
2018-03-03T14:24:09.513Z,32.40
2018-03-03T14:26:36.984Z,32.40
2018-03-03T14:29:04.443Z,32.40
2018-03-03T14:31:31.921Z,32.50
2018-03-03T14:33:59.480Z,32.50
2018-03-03T14:36:26.992Z,32.60
2018-03-03T14:38:54.455Z,32.80
2018-03-03T14:41:21.919Z,32.90
2018-03-03T14:43:49.395Z,32.20
2018-03-03T14:46:16.856Z,32.50
2018-03-03T14:48:44.321Z,32.40
2018-03-03T14:51:12.596Z,32.30
2018-03-03T14:53:40.074Z,32.30
2018-03-03T14:56:08.380Z,32.80
2018-03-03T14:58:35.888Z,32.70
2018-03-03T15:01:03.496Z,32.80
2018-03-03T15:03:31.007Z,32.80
2018-03-03T15:05:58.463Z,32.70
2018-03-03T15:08:25.949Z,31.20
2018-03-03T15:10:53.424Z,30.00
2018-03-03T15:13:20.889Z,30.40
2018-03-03T15:15:48.363Z,31.20
2018-03-03T15:18:15.823Z,30.50
2018-03-03T15:20:43.296Z,31.50
2018-03-03T15:23:10.808Z,29.50
2018-03-03T15:25:38.269Z,31.60
2018-03-03T15:28:05.732Z,27.20
2018-03-03T15:30:33.199Z,27.20
2018-03-03T15:33:00.693Z,27.30
2018-03-03T15:35:28.128Z,28.10
2018-03-03T15:37:55.595Z,27.70
2018-03-03T15:40:23.156Z,27.40
2018-03-03T15:42:50.703Z,27.60
2018-03-03T15:45:18.192Z,27.70
2018-03-03T15:47:46.425Z,28.60
2018-03-03T15:50:13.910Z,28.60
2018-03-03T15:52:41.371Z,26.80
2018-03-03T15:55:09.588Z,26.90
2018-03-03T15:57:37.079Z,26.60
2018-03-03T16:00:04.614Z,26.90
2018-03-03T16:02:32.089Z,28.00
2018-03-03T16:04:59.562Z,27.30
2018-03-03T16:07:27.025Z,27.20
2018-03-03T16:09:54.589Z,28.30
2018-03-03T16:12:22.193Z,29.50
2018-03-03T16:14:50.386Z,30.40
2018-03-03T16:17:17.880Z,30.40
2018-03-03T16:19:45.338Z,31.30
2018-03-03T16:22:12.815Z,32.20
2018-03-03T16:24:41.129Z,33.80
2018-03-03T16:27:08.601Z,33.20
2018-03-03T16:29:36.061Z,33.40
2018-03-03T16:32:03.572Z,34.30
2018-03-03T16:34:31.050Z,34.70
2018-03-03T16:36:58.521Z,34.90
2018-03-03T16:39:25.984Z,35.10
2018-03-03T16:41:53.566Z,35.30
2018-03-03T16:44:21.033Z,35.20
2018-03-03T16:46:49.281Z,35.20
2018-03-03T16:49:16.742Z,35.20
2018-03-03T16:51:44.241Z,35.20
2018-03-03T16:54:11.756Z,35.40
2018-03-03T16:56:39.224Z,35.50
2018-03-03T16:59:06.705Z,35.50
2018-03-03T17:01:34.936Z,36.60
2018-03-03T17:04:02.407Z,36.60
2018-03-03T17:06:30.656Z,36.80
2018-03-03T17:08:58.147Z,36.80
2018-03-03T17:11:25.758Z,37.10
2018-03-03T17:13:53.265Z,37.20
2018-03-03T17:16:20.823Z,37.60
2018-03-03T17:18:48.398Z,38.00
2018-03-03T17:21:16.619Z,37.60
2018-03-03T17:23:44.105Z,37.60
2018-03-03T17:26:12.346Z,38.20
2018-03-03T17:28:39.847Z,38.10
2018-03-03T17:31:07.318Z,38.20
2018-03-03T17:33:35.568Z,38.00
2018-03-03T17:36:03.809Z,37.70
2018-03-03T17:38:31.276Z,37.70
2018-03-03T17:40:58.735Z,37.80
2018-03-03T17:43:26.225Z,37.90
2018-03-03T17:45:53.871Z,37.70
2018-03-03T17:48:21.344Z,37.80
2018-03-03T17:50:50.360Z,38.60
2018-03-03T17:53:17.829Z,38.60
2018-03-03T17:55:45.397Z,38.50
2018-03-03T17:58:12.864Z,39.00
2018-03-03T18:00:40.331Z,39.00
2018-03-03T18:03:07.792Z,39.00
2018-03-03T18:05:35.335Z,39.00
2018-03-03T18:08:02.799Z,39.00
2018-03-03T18:10:30.272Z,39.10
2018-03-03T18:12:57.732Z,38.90
2018-03-03T18:15:25.210Z,38.80
2018-03-03T18:17:52.676Z,38.70
2018-03-03T18:20:20.939Z,39.20
2018-03-03T18:22:49.292Z,39.10
2018-03-03T18:25:16.889Z,39.20
2018-03-03T18:27:45.133Z,39.30
2018-03-03T18:30:12.619Z,39.20
2018-03-03T18:32:40.897Z,39.50
2018-03-03T18:35:09.236Z,39.50
2018-03-03T18:37:36.699Z,39.40
2018-03-03T18:40:04.156Z,39.70
2018-03-03T18:42:31.652Z,39.70
2018-03-03T18:44:59.883Z,39.50
2018-03-03T18:47:27.475Z,39.50
2018-03-03T18:49:55.723Z,39.30
2018-03-03T18:52:24.704Z,39.30
2018-03-03T18:54:52.180Z,39.30
2018-03-03T18:57:21.168Z,40.00
2018-03-03T18:59:48.650Z,40.00
2018-03-03T19:02:16.892Z,40.00
2018-03-03T19:04:44.358Z,39.80
2018-03-03T19:07:11.821Z,39.80
2018-03-03T19:09:43.468Z,40.00
2018-03-03T19:12:11.032Z,40.00
2018-03-03T19:14:38.500Z,39.90
2018-03-03T19:17:05.970Z,40.10
2018-03-03T19:19:34.209Z,40.40
2018-03-03T19:22:01.674Z,40.30
2018-03-03T19:24:29.190Z,40.80
2018-03-03T19:26:56.664Z,40.60
2018-03-03T19:29:24.205Z,40.50
2018-03-03T19:31:51.678Z,40.80
2018-03-03T19:34:19.144Z,40.60
2018-03-03T19:36:46.604Z,40.70
2018-03-03T19:39:14.080Z,40.50
2018-03-03T19:41:41.566Z,40.30
2018-03-03T19:44:09.796Z,40.90
2018-03-03T19:46:37.262Z,40.80
2018-03-03T19:49:04.860Z,41.00
2018-03-03T19:51:32.337Z,41.40
2018-03-03T19:53:59.841Z,41.60
2018-03-03T19:56:27.325Z,41.80
2018-03-03T19:58:55.553Z,42.40
2018-03-03T20:01:23.132Z,42.30
2018-03-03T20:03:50.696Z,41.90
2018-03-03T20:06:18.315Z,41.70
2018-03-03T20:08:45.785Z,42.00
2018-03-03T20:11:13.281Z,41.80
2018-03-03T20:13:40.756Z,42.10
2018-03-03T20:16:09.026Z,41.90
2018-03-03T20:18:37.257Z,42.20
2018-03-03T20:21:04.724Z,42.10
2018-03-03T20:23:32.192Z,41.90
2018-03-03T20:26:00.466Z,41.80
2018-03-03T20:28:27.939Z,41.90
2018-03-03T20:30:56.171Z,42.30
2018-03-03T20:33:23.653Z,42.20
2018-03-03T20:35:51.887Z,42.50
2018-03-03T20:38:19.361Z,42.50
2018-03-03T20:40:46.824Z,42.50
2018-03-03T20:43:14.431Z,42.60
2018-03-03T20:45:42.664Z,42.50
2018-03-03T20:48:10.138Z,42.40
2018-03-03T20:50:37.643Z,42.50
2018-03-03T20:53:05.127Z,42.70
2018-03-03T20:55:32.602Z,42.80
2018-03-03T20:58:00.072Z,43.10
2018-03-03T21:00:28.337Z,42.60
2018-03-03T21:02:55.860Z,42.60
2018-03-03T21:05:24.084Z,43.00
2018-03-03T21:07:52.338Z,43.50
2018-03-03T21:10:19.853Z,43.30
2018-03-03T21:12:47.323Z,43.00
2018-03-03T21:15:15.177Z,43.10
2018-03-03T21:17:42.656Z,43.00
2018-03-03T21:20:10.119Z,43.10
2018-03-03T21:22:37.588Z,43.10
2018-03-03T21:25:05.056Z,43.10
2018-03-03T21:27:33.291Z,42.40
2018-03-03T21:30:00.766Z,42.80
2018-03-03T21:32:28.323Z,42.70
2018-03-03T21:34:55.902Z,43.20
2018-03-03T21:37:24.154Z,43.10
2018-03-03T21:39:51.728Z,43.00
2018-03-03T21:42:19.295Z,43.00
2018-03-03T21:44:49.161Z,43.10
2018-03-03T21:47:16.637Z,43.10
2018-03-03T21:49:44.109Z,43.30
2018-03-03T21:52:11.577Z,43.30
2018-03-03T21:54:40.565Z,43.50
2018-03-03T21:57:08.053Z,43.50
2018-03-03T21:59:36.293Z,43.20
2018-03-03T22:02:03.758Z,43.20
2018-03-03T22:04:31.316Z,43.10
2018-03-03T22:06:59.557Z,44.00
2018-03-03T22:09:27.043Z,43.40
2018-03-03T22:11:54.510Z,43.80
2018-03-03T22:14:22.097Z,43.70
2018-03-03T22:16:49.573Z,43.70
2018-03-03T22:19:17.081Z,43.70
2018-03-03T22:21:46.067Z,44.10
2018-03-03T22:24:13.537Z,44.10
2018-03-03T22:26:41.776Z,44.40
2018-03-03T22:29:09.244Z,43.80
2018-03-03T22:31:36.703Z,44.10
2018-03-03T22:34:04.184Z,44.10
2018-03-03T22:36:32.434Z,44.60
2018-03-03T22:38:59.927Z,44.50
2018-03-03T22:41:28.182Z,44.90
2018-03-03T22:43:55.733Z,44.80
2018-03-03T22:46:23.199Z,45.10
2018-03-03T22:48:50.678Z,44.90
2018-03-03T22:51:18.926Z,45.20
2018-03-03T22:53:46.391Z,45.10
2018-03-03T22:56:14.644Z,45.10
2018-03-03T22:58:42.101Z,45.10
2018-03-03T23:01:09.569Z,45.60
2018-03-03T23:03:37.042Z,45.20
2018-03-03T23:06:04.521Z,45.10
2018-03-03T23:08:32.041Z,45.50
2018-03-03T23:11:01.022Z,45.10
2018-03-03T23:13:28.549Z,45.10
2018-03-03T23:15:56.017Z,45.40
2018-03-03T23:18:23.481Z,45.40
2018-03-03T23:20:50.944Z,45.30
2018-03-03T23:23:18.404Z,45.30
2018-03-03T23:25:45.873Z,45.60
2018-03-03T23:28:13.432Z,45.30
2018-03-03T23:30:40.988Z,45.30
2018-03-03T23:33:09.257Z,45.80
2018-03-03T23:35:36.714Z,45.80
2018-03-03T23:38:04.343Z,45.90
2018-03-03T23:40:31.811Z,45.60
2018-03-03T23:42:59.292Z,45.60
2018-03-03T23:45:26.858Z,45.80
2018-03-03T23:47:54.404Z,45.60
2018-03-03T23:50:21.870Z,45.60
2018-03-03T23:52:49.329Z,45.60
2018-03-03T23:55:16.803Z,45.30
2018-03-03T23:57:44.275Z,45.30
